Time;durP1;ratioP1;P1;durP2;ratioP2;P2;SDS_P1;SDS_P2;PMS_P1;PMS_P2;Temp;Humidity;BMP_temperature;BMP_pressure;BME280_temperature;BME280_humidity;BME280_pressure;Samples;Min_cycle;Max_cycle;Signal;HPM_P1;HPM_P2
2022/09/11 00:01:39;;;;;;;;;;;;;;;22.42;69.05;100139.91;4959531;28;19922;-79
2022/09/11 00:04:05;;;;;;;;;;;;;;;22.40;68.81;100143.19;4959436;28;19918;-78
2022/09/11 00:06:30;;;;;;;;;;;;;;;22.42;67.92;100140.69;4959604;28;19918;-78
2022/09/11 00:09:00;;;;;;;;;;;;;;;22.56;67.89;100139.53;4959660;28;19918;-79
2022/09/11 00:11:27;;;;;;;;;;;;;;;22.49;67.93;100137.69;4959290;28;20365;-78
2022/09/11 00:13:55;;;;;;;;;;;;;;;22.49;68.18;100137.69;4959198;28;19918;-79
2022/09/11 00:16:41;;;;;;;;;;;;;;;22.53;67.43;100139.63;4977235;28;19969;-79
2022/09/11 00:19:17;;;;;;;;;;;;;;;22.47;67.68;100133.69;4958782;28;19919;-80
2022/09/11 00:21:44;;;;;;;;;;;;;;;22.52;67.53;100135.19;4959733;28;19922;-77
2022/09/11 00:24:10;;;;;;;;;;;;;;;22.47;67.03;100134.50;4959770;28;20037;-78
2022/09/11 00:26:38;;;;;;;;;;;;;;;22.49;67.39;100132.03;4975416;28;21261;-79
2022/09/11 00:29:03;;;;;;;;;;;;;;;22.59;67.01;100135.03;4959375;28;19918;-80
2022/09/11 00:31:31;;;;;;;;;;;;;;;22.76;65.98;100125.22;4976118;28;19918;-77
2022/09/11 00:33:56;;;;;;;;;;;;;;;22.72;66.26;100127.34;4959526;28;20005;-77
2022/09/11 00:36:23;;;;;;;;;;;;;;;22.71;67.02;100123.72;4976601;28;19961;-78
2022/09/11 00:38:49;;;;;;;;;;;;;;;22.69;67.04;100119.72;4958637;28;19965;-79
2022/09/11 00:41:19;;;;;;;;;;;;;;;22.77;66.65;100123.97;4958831;28;19964;-80
2022/09/11 00:43:49;;;;;;;;;;;;;;;22.87;66.99;100117.22;4958741;28;19922;-80
2022/09/11 00:46:15;;;;;;;;;;;;;;;22.86;66.95;100112.78;4959317;28;20273;-79
2022/09/11 00:48:41;;;;;;;;;;;;;;;22.89;66.12;100126.09;4958652;28;19922;-79
2022/09/11 00:51:06;;;;;;;;;;;;;;;22.87;66.67;100119.25;4959182;28;20005;-79
2022/09/11 00:53:34;;;;;;;;;;;;;;;22.81;66.22;100115.38;4958967;28;19953;-79
2022/09/11 00:56:01;;;;;;;;;;;;;;;22.78;65.68;100117.06;4958570;28;19918;-79
2022/09/11 00:58:29;;;;;;;;;;;;;;;22.76;64.67;100108.22;4958475;28;19918;-78
2022/09/11 01:00:55;;;;;;;;;;;;;;;22.80;64.23;100106.06;4958493;28;19918;-79
2022/09/11 01:03:21;;;;;;;;;;;;;;;22.79;64.34;100101.63;4976032;28;19925;-76
2022/09/11 01:05:47;;;;;;;;;;;;;;;22.85;64.86;100104.69;4958955;28;19965;-78
2022/09/11 01:08:13;;;;;;;;;;;;;;;22.87;65.11;100097.34;4975487;28;20293;-80
2022/09/11 01:10:44;;;;;;;;;;;;;;;22.91;63.29;100109.44;4976003;28;19922;-80
2022/09/11 01:13:09;;;;;;;;;;;;;;;22.90;64.73;100104.97;4958235;28;19918;-79
2022/09/11 01:15:38;;;;;;;;;;;;;;;22.87;65.87;100108.69;4976131;28;19924;-78
2022/09/11 01:18:03;;;;;;;;;;;;;;;22.88;66.37;100104.63;4974683;28;20012;-80
2022/09/11 01:20:44;;;;;;;;;;;;;;;22.96;65.82;100105.25;4958763;28;19964;-78
2022/09/11 01:23:10;;;;;;;;;;;;;;;22.95;65.22;100107.25;4975518;28;19918;-80
2022/09/11 01:26:02;;;;;;;;;;;;;;;22.79;67.78;100101.63;4958667;28;20320;-79
2022/09/11 01:28:37;;;;;;;;;;;;;;;22.86;67.09;100107.13;4936041;28;19919;-79
2022/09/11 01:31:06;;;;;;;;;;;;;;;22.62;67.38;100097.25;4958081;28;19925;-80
2022/09/11 01:33:32;;;;;;;;;;;;;;;22.51;68.32;100099.59;4975378;28;19918;-79
2022/09/11 01:36:09;;;;;;;;;;;;;;;22.54;68.79;100095.88;4958618;28;19918;-80
2022/09/11 01:38:35;;;;;;;;;;;;;;;22.58;68.95;100090.88;4975106;28;19965;-78
2022/09/11 01:41:05;;;;;;;;;;;;;;;22.51;68.47;100082.59;4958847;28;19926;-80
2022/09/11 01:43:33;;;;;;;;;;;;;;;22.52;68.74;100087.00;4957957;28;19922;-79
2022/09/11 01:46:00;;;;;;;;;;;;;;;22.47;68.60;100077.78;4957884;28;20017;-79
2022/09/11 01:48:31;;;;;;;;;;;;;;;22.38;69.33;100077.66;4975575;28;20254;-79
2022/09/11 01:50:59;;;;;;;;;;;;;;;22.38;69.80;100072.00;4958124;28;19918;-78
2022/09/11 01:53:29;;;;;;;;;;;;;;;22.31;68.97;100065.72;4957851;28;19950;-79
2022/09/11 01:56:18;;;;;;;;;;;;;;;22.30;69.59;100064.91;4975149;28;19918;-79
2022/09/11 01:58:45;;;;;;;;;;;;;;;22.23;70.03;100062.28;4957996;28;19930;-79
2022/09/11 02:01:15;;;;;;;;;;;;;;;22.21;70.62;100067.59;4957752;28;19922;-79
2022/09/11 02:03:58;;;;;;;;;;;;;;;22.29;68.84;100052.00;4975352;28;19922;-79
2022/09/11 02:06:29;;;;;;;;;;;;;;;22.22;69.54;100064.31;4957685;28;19925;-79
2022/09/11 02:09:04;;;;;;;;;;;;;;;22.17;70.69;100069.72;4958213;28;19929;-79
2022/09/11 02:11:35;;;;;;;;;;;;;;;22.13;70.16;100058.47;4958180;28;19918;-79
2022/09/11 02:14:05;;;;;;;;;;;;;;;22.11;70.75;100046.81;4974756;28;19930;-79
2022/09/11 02:16:40;;;;;;;;;;;;;;;22.11;70.75;100046.03;4957954;28;20277;-79
2022/09/11 02:19:08;;;;;;;;;;;;;;;22.07;70.72;100039.63;4958123;28;19918;-79
2022/09/11 02:21:34;;;;;;;;;;;;;;;22.12;71.39;100045.56;4975288;28;20491;-79
2022/09/11 02:24:00;;;;;;;;;;;;;;;22.22;70.84;100040.84;4957639;28;19968;-80
2022/09/11 02:26:27;;;;;;;;;;;;;;;22.21;70.05;100040.06;4958090;28;19965;-79
2022/09/11 02:28:53;;;;;;;;;;;;;;;22.20;70.29;100032.00;4958181;28;20005;-79
2022/09/11 02:31:19;;;;;;;;;;;;;;;22.16;70.06;100034.94;4961279;28;20007;-78
2022/09/11 02:33:45;;;;;;;;;;;;;;;22.17;70.62;100030.06;4961673;28;20009;-77
2022/09/11 02:36:25;;;;;;;;;;;;;;;22.06;69.54;100027.50;4961368;28;19930;-78
2022/09/11 02:38:53;;;;;;;;;;;;;;;22.01;70.03;100024.41;4978607;28;19922;-78
2022/09/11 02:41:22;;;;;;;;;;;;;;;21.99;70.21;100033.31;4960969;28;19918;-78
2022/09/11 02:44:03;;;;;;;;;;;;;;;22.00;70.35;100031.28;4961742;28;19981;-79
2022/09/11 02:46:48;;;;;;;;;;;;;;;22.06;70.10;100026.69;4978321;28;19940;-80
2022/09/11 02:49:31;;;;;;;;;;;;;;;22.06;70.44;100029.53;4978462;28;20277;-78
2022/09/11 02:51:58;;;;;;;;;;;;;;;22.05;70.50;100020.25;4978128;28;19922;-80
2022/09/11 02:54:42;;;;;;;;;;;;;;;22.26;68.84;100010.34;4961096;28;19925;-78
2022/09/11 02:57:19;;;;;;;;;;;;;;;22.11;69.63;100006.34;4977803;28;20402;-78
2022/09/11 02:59:47;;;;;;;;;;;;;;;21.94;70.73;100009.19;4961195;28;19941;-80
2022/09/11 03:02:14;;;;;;;;;;;;;;;21.87;71.41;100011.41;4961250;28;19933;-80
2022/09/11 03:04:40;;;;;;;;;;;;;;;21.85;71.00;100009.03;4960931;28;19918;-79
2022/09/11 03:07:06;;;;;;;;;;;;;;;21.80;71.65;100015.22;4978113;28;19925;-79
2022/09/11 03:09:33;;;;;;;;;;;;;;;21.62;72.17;100009.97;4961118;28;19918;-79
2022/09/11 03:11:59;;;;;;;;;;;;;;;21.62;72.73;100003.53;4960552;28;19922;-79
2022/09/11 03:14:24;;;;;;;;;;;;;;;21.58;72.71;99995.16;4978330;28;19970;-79
2022/09/11 03:16:49;;;;;;;;;;;;;;;21.62;72.76;99997.88;4960712;28;20412;-79
2022/09/11 03:19:14;;;;;;;;;;;;;;;21.58;72.60;100000.00;4960306;28;20005;-79
2022/09/11 03:21:40;;;;;;;;;;;;;;;21.57;72.58;100007.72;4978311;28;19922;-79
2022/09/11 03:24:07;;;;;;;;;;;;;;;21.50;73.05;100007.88;4960606;28;19919;-78
2022/09/11 03:26:33;;;;;;;;;;;;;;;21.47;73.42;99988.97;4960569;28;20357;-78
2022/09/11 03:28:59;;;;;;;;;;;;;;;21.48;73.53;100001.06;4977619;28;19926;-79
2022/09/11 03:31:25;;;;;;;;;;;;;;;21.35;72.63;99996.09;4960181;28;19918;-80
2022/09/11 03:33:51;;;;;;;;;;;;;;;21.22;73.77;99997.22;4960663;28;19976;-80
2022/09/11 03:36:16;;;;;;;;;;;;;;;21.26;74.73;99993.06;4977167;28;19925;-80
2022/09/11 03:38:44;;;;;;;;;;;;;;;21.28;74.42;100001.91;4977337;28;19918;-80
2022/09/11 03:41:09;;;;;;;;;;;;;;;21.22;74.77;100000.84;4959350;28;20031;-80
2022/09/11 03:43:35;;;;;;;;;;;;;;;21.28;74.48;99999.06;4977363;28;19965;-80
2022/09/11 03:46:00;;;;;;;;;;;;;;;21.25;74.45;99999.94;4977469;28;20387;-79
2022/09/11 03:48:25;;;;;;;;;;;;;;;21.25;74.33;99997.13;4960129;28;20250;-81
2022/09/11 03:50:51;;;;;;;;;;;;;;;21.24;74.76;99989.06;4960122;28;19918;-80
2022/09/11 03:53:17;;;;;;;;;;;;;;;21.26;74.97;99993.06;4960592;28;20261;-79
2022/09/11 03:55:44;;;;;;;;;;;;;;;21.27;75.01;99989.00;4977046;28;20280;-80
2022/09/11 03:58:10;;;;;;;;;;;;;;;21.34;75.56;99983.19;4976983;28;19918;-77
2022/09/11 04:00:39;;;;;;;;;;;;;;;21.38;74.82;99983.91;4959650;28;19918;-78
2022/09/11 04:03:04;;;;;;;;;;;;;;;21.42;74.65;99983.81;4976961;28;19985;-78
2022/09/11 04:05:29;;;;;;;;;;;;;;;21.43;74.27;99980.53;4977493;28;20389;-78
2022/09/11 04:07:55;;;;;;;;;;;;;;;21.46;73.67;99990.19;4959459;28;19925;-80
2022/09/11 04:10:20;;;;;;;;;;;;;;;21.54;74.31;99983.13;4977346;28;19929;-80
2022/09/11 04:12:46;;;;;;;;;;;;;;;21.52;74.29;99981.94;4976720;28;20397;-80
2022/09/11 04:15:11;;;;;;;;;;;;;;;21.56;72.63;99985.50;4976383;28;19918;-80
2022/09/11 04:17:37;;;;;;;;;;;;;;;21.65;73.43;99974.34;4959256;28;19918;-79
2022/09/11 04:20:03;;;;;;;;;;;;;;;21.50;73.22;99975.94;4959499;28;19933;-78
2022/09/11 04:22:28;;;;;;;;;;;;;;;21.50;73.79;99978.78;4976609;28;19918;-79
2022/09/11 04:24:53;;;;;;;;;;;;;;;21.55;73.47;99978.25;4977097;28;19918;-79
2022/09/11 04:27:19;;;;;;;;;;;;;;;21.53;73.74;99983.56;4959184;28;20332;-79
2022/09/11 04:29:45;;;;;;;;;;;;;;;21.57;74.45;99978.59;4959062;28;20013;-79
2022/09/11 04:32:11;;;;;;;;;;;;;;;21.53;74.48;99973.03;4959568;28;19922;-79
2022/09/11 04:34:36;;;;;;;;;;;;;;;21.51;74.71;99977.53;4958952;28;19925;-79
2022/09/11 04:37:02;;;;;;;;;;;;;;;21.51;75.35;99975.50;4975924;28;19918;-79
2022/09/11 04:39:28;;;;;;;;;;;;;;;21.58;74.67;99966.03;4955606;29;19928;-79
2022/09/11 04:41:54;;;;;;;;;;;;;;;21.57;74.92;99972.91;4955658;29;19984;-78
2022/09/11 04:44:20;;;;;;;;;;;;;;;21.54;74.69;99962.50;4955617;29;19918;-79
2022/09/11 04:46:45;;;;;;;;;;;;;;;21.59;75.30;99964.81;4957424;28;19974;-79
2022/09/11 04:49:11;;;;;;;;;;;;;;;21.56;74.02;99960.00;4955479;29;20373;-79
2022/09/11 04:51:37;;;;;;;;;;;;;;;21.56;74.48;99962.84;4956362;28;19918;-79
2022/09/11 04:54:03;;;;;;;;;;;;;;;21.59;74.32;99959.94;4955737;29;19919;-79
2022/09/11 04:56:29;;;;;;;;;;;;;;;21.61;74.14;99965.16;4956710;28;19922;-80
2022/09/11 04:58:59;;;;;;;;;;;;;;;21.53;74.36;99975.06;4955865;29;20277;-80
2022/09/11 05:01:26;;;;;;;;;;;;;;;21.58;74.93;99968.88;4955581;29;20013;-80
2022/09/11 05:03:52;;;;;;;;;;;;;;;21.67;74.57;99966.97;4955592;29;19925;-79
2022/09/11 05:06:17;;;;;;;;;;;;;;;21.74;73.64;99970.91;4957077;28;19918;-79
2022/09/11 05:08:43;;;;;;;;;;;;;;;22.13;73.68;99975.53;4955135;29;19923;-80
2022/09/11 05:11:13;;;;;;;;;;;;;;;22.66;71.94;99973.97;4955483;29;19944;-79
2022/09/11 05:13:38;;;;;;;;;;;;;;;23.10;69.84;99976.31;4955407;29;20365;-79
2022/09/11 05:16:04;;;;;;;;;;;;;;;23.25;68.48;99981.09;4955135;29;20013;-78
2022/09/11 05:18:30;;;;;;;;;;;;;;;23.12;67.92;99982.34;4955811;29;19926;-78
2022/09/11 05:20:59;;;;;;;;;;;;;;;23.10;68.11;99973.47;4956326;28;19942;-78
2022/09/11 05:23:24;;;;;;;;;;;;;;;23.29;67.54;99968.84;4956224;28;19918;-79
2022/09/11 05:25:50;;;;;;;;;;;;;;;23.77;66.46;99970.47;4955271;29;20328;-79
2022/09/11 05:28:16;;;;;;;;;;;;;;;24.11;65.98;99977.41;4955204;29;19972;-78
2022/09/11 05:30:41;;;;;;;;;;;;;;;24.14;64.93;99971.59;4956152;28;20385;-78
2022/09/11 05:33:07;;;;;;;;;;;;;;;24.05;64.86;99978.00;4955757;29;19926;-78
2022/09/11 05:35:33;;;;;;;;;;;;;;;23.91;64.73;99969.97;4955373;29;19966;-79
2022/09/11 05:37:58;;;;;;;;;;;;;;;23.83;65.10;99973.53;4954656;29;19919;-78
2022/09/11 05:40:23;;;;;;;;;;;;;;;23.73;65.58;99976.28;4971456;28;19934;-78
2022/09/11 05:42:48;;;;;;;;;;;;;;;23.63;66.49;99976.66;4958001;28;20357;-78
2022/09/11 05:45:14;;;;;;;;;;;;;;;23.50;66.77;99985.97;4958466;28;19918;-77
2022/09/11 05:47:39;;;;;;;;;;;;;;;23.50;66.89;99980.28;4958432;28;20317;-79
2022/09/11 05:50:04;;;;;;;;;;;;;;;23.46;67.29;99975.97;4975583;28;20302;-78
2022/09/11 05:52:30;;;;;;;;;;;;;;;23.58;67.07;99977.97;4975545;28;19961;-78
2022/09/11 05:54:57;;;;;;;;;;;;;;;23.83;65.27;99977.16;4958459;28;20005;-77
2022/09/11 05:57:22;;;;;;;;;;;;;;;23.87;65.56;99979.91;4958346;28;20021;-77
2022/09/11 05:59:48;;;;;;;;;;;;;;;23.93;65.00;99973.16;4957776;28;20353;-79
2022/09/11 06:02:13;;;;;;;;;;;;;;;24.02;65.11;99976.09;4957720;28;19925;-79
2022/09/11 06:04:38;;;;;;;;;;;;;;;24.18;65.12;99977.13;4960408;28;19947;-79
2022/09/11 06:07:04;;;;;;;;;;;;;;;24.40;64.56;99980.84;4961586;28;19918;-79
2022/09/11 06:09:29;;;;;;;;;;;;;;;25.24;62.24;99986.53;4961834;28;19919;-79
2022/09/11 06:11:55;;;;;;;;;;;;;;;25.18;62.19;99976.22;4961508;28;19918;-79
2022/09/11 06:14:20;;;;;;;;;;;;;;;25.02;62.78;99982.94;4978630;28;19926;-79
2022/09/11 06:16:47;;;;;;;;;;;;;;;24.90;63.65;99980.97;4962288;28;19960;-77
2022/09/11 06:19:12;;;;;;;;;;;;;;;24.79;63.19;99985.03;4961374;28;19925;-79
2022/09/11 06:21:37;;;;;;;;;;;;;;;24.62;63.47;99982.88;4961436;28;19918;-79
2022/09/11 06:24:04;;;;;;;;;;;;;;;24.58;63.59;99990.75;4979303;28;19929;-79
2022/09/11 06:26:29;;;;;;;;;;;;;;;24.35;64.64;99994.84;4961269;28;20033;-78
2022/09/11 06:28:55;;;;;;;;;;;;;;;24.60;63.98;99996.75;4960965;28;19996;-79
2022/09/11 06:31:21;;;;;;;;;;;;;;;24.71;64.89;99997.13;4961833;28;19921;-79
2022/09/11 06:33:47;;;;;;;;;;;;;;;25.57;59.73;100001.06;4961854;28;19961;-79
2022/09/11 06:36:14;;;;;;;;;;;;;;;26.20;58.73;100001.63;4961750;28;20328;-79
2022/09/11 06:38:39;;;;;;;;;;;;;;;26.46;56.75;100001.34;4977980;28;19952;-79
2022/09/11 06:41:05;;;;;;;;;;;;;;;25.92;59.49;99997.97;4961675;28;19922;-79
2022/09/11 06:43:31;;;;;;;;;;;;;;;26.09;59.50;100002.09;4961275;28;19969;-79
2022/09/11 06:46:08;;;;;;;;;;;;;;;27.04;56.01;99998.19;4961838;28;19918;-79
2022/09/11 06:48:33;;;;;;;;;;;;;;;28.07;52.08;100006.59;4961771;28;20273;-78
2022/09/11 06:51:05;;;;;;;;;;;;;;;27.53;54.55;100002.78;4961409;28;20005;-78
2022/09/11 06:53:31;;;;;;;;;;;;;;;28.09;51.48;100000.38;4978444;28;19930;-78
2022/09/11 06:56:00;;;;;;;;;;;;;;;28.01;50.84;100007.75;4961623;28;19918;-78
2022/09/11 06:58:26;;;;;;;;;;;;;;;27.95;52.45;100007.63;4960741;28;19926;-78
2022/09/11 07:00:51;;;;;;;;;;;;;;;29.01;49.45;100008.16;4961291;28;19918;-78
2022/09/11 07:03:17;;;;;;;;;;;;;;;27.90;52.22;100009.09;4961539;28;20269;-78
2022/09/11 07:05:48;;;;;;;;;;;;;;;26.99;54.45;100000.91;4960651;28;20384;-78
2022/09/11 07:08:14;;;;;;;;;;;;;;;27.94;50.89;100015.41;4960533;28;19918;-77
2022/09/11 07:10:39;;;;;;;;;;;;;;;28.84;49.80;100011.50;4977936;28;19918;-78
2022/09/11 07:13:05;;;;;;;;;;;;;;;29.16;48.56;100011.81;4961312;28;19918;-78
2022/09/11 07:15:31;;;;;;;;;;;;;;;29.38;46.26;100023.63;4961311;28;20349;-79
2022/09/11 07:17:56;;;;;;;;;;;;;;;29.36;46.25;100020.47;4960414;28;20292;-79
2022/09/11 07:20:22;;;;;;;;;;;;;;;30.14;44.71;100014.31;4961169;28;19924;-78
2022/09/11 07:22:47;;;;;;;;;;;;;;;29.92;46.34;100014.78;4977252;28;20321;-79
2022/09/11 07:25:13;;;;;;;;;;;;;;;28.97;47.94;100023.44;4977261;28;19953;-77
2022/09/11 07:27:38;;;;;;;;;;;;;;;29.72;46.60;100024.13;4960238;28;19961;-79
2022/09/11 07:30:04;;;;;;;;;;;;;;;29.40;47.89;100025.97;4960749;28;19969;-79
2022/09/11 07:32:30;;;;;;;;;;;;;;;28.78;48.76;100030.66;4977189;28;20369;-78
2022/09/11 07:34:55;;;;;;;;;;;;;;;28.12;50.92;100025.13;4977259;28;19918;-79
2022/09/11 07:37:20;;;;;;;;;;;;;;;27.47;52.68;100027.56;4959904;28;19922;-79
2022/09/11 07:39:46;;;;;;;;;;;;;;;27.47;52.42;100027.56;4956552;29;19922;-79
2022/09/11 07:42:11;;;;;;;;;;;;;;;28.67;49.90;100034.09;4956734;29;20350;-79
2022/09/11 07:44:36;;;;;;;;;;;;;;;28.63;50.32;100030.63;4957677;29;19926;-79
2022/09/11 07:47:02;;;;;;;;;;;;;;;29.27;47.67;100026.31;4957650;29;19926;-79
2022/09/11 07:49:27;;;;;;;;;;;;;;;29.15;48.59;100025.34;4956900;29;19918;-80
2022/09/11 07:51:53;;;;;;;;;;;;;;;29.46;48.48;100032.59;4956529;29;19946;-79
2022/09/11 07:54:18;;;;;;;;;;;;;;;28.91;50.10;100027.47;4957138;29;20005;-80
2022/09/11 07:56:44;;;;;;;;;;;;;;;29.83;47.15;100018.59;4956761;29;20021;-79
2022/09/11 07:59:09;;;;;;;;;;;;;;;30.44;45.95;100026.41;4957950;28;19973;-80
2022/09/11 08:01:34;;;;;;;;;;;;;;;30.06;45.95;100027.47;4957253;29;19922;-80
2022/09/11 08:04:01;;;;;;;;;;;;;;;29.66;47.38;100021.19;4956900;29;20400;-80
2022/09/11 08:06:28;;;;;;;;;;;;;;;29.97;47.18;100019.78;4956720;29;20310;-80
2022/09/11 08:08:54;;;;;;;;;;;;;;;29.21;48.89;100023.34;4956822;29;19965;-79
2022/09/11 08:11:20;;;;;;;;;;;;;;;29.11;48.67;100024.75;4957511;28;20010;-78
2022/09/11 08:13:49;;;;;;;;;;;;;;;28.34;50.35;100031.38;4955216;29;19961;-79
2022/09/11 08:16:15;;;;;;;;;;;;;;;27.71;51.64;100029.72;4958209;29;19925;-80
2022/09/11 08:18:40;;;;;;;;;;;;;;;27.32;52.95;100029.53;4956534;28;20012;-81
2022/09/11 08:21:07;;;;;;;;;;;;;;;28.61;50.71;100036.06;4955392;29;19926;-78
2022/09/11 08:23:33;;;;;;;;;;;;;;;28.55;51.65;100040.88;4955520;29;19941;-80
2022/09/11 08:26:05;;;;;;;;;;;;;;;28.99;50.50;100045.09;4955232;28;20361;-80
2022/09/11 08:28:32;;;;;;;;;;;;;;;30.00;47.63;100031.06;4954971;29;20016;-79
2022/09/11 08:30:57;;;;;;;;;;;;;;;30.37;45.50;100044.06;4955395;29;19918;-78
2022/09/11 08:33:23;;;;;;;;;;;;;;;29.97;47.02;100039.88;4956635;28;19918;-79
2022/09/11 08:35:48;;;;;;;;;;;;;;;31.61;42.78;100046.84;4955633;29;19918;-78
2022/09/11 08:38:13;;;;;;;;;;;;;;;31.80;42.30;100042.31;4955073;29;20325;-79
2022/09/11 08:40:39;;;;;;;;;;;;;;;31.66;41.67;100046.09;4954377;29;20057;-80
2022/09/11 08:43:05;;;;;;;;;;;;;;;32.56;40.13;100047.38;4952094;29;19924;-79
2022/09/11 08:45:33;;;;;;;;;;;;;;;31.48;39.76;100032.09;4948360;29;19923;-78
2022/09/11 08:48:00;;;;;;;;;;;;;;;30.80;40.73;100035.69;4954928;29;20017;-79
2022/09/11 08:50:27;;;;;;;;;;;;;;;30.42;42.11;100029.00;4951873;29;19925;-79
2022/09/11 08:52:55;;;;;;;;;;;;;;;31.20;42.16;100038.41;4955401;28;20333;-78
2022/09/11 08:55:38;;;;;;;;;;;;;;;31.27;40.92;100032.25;4956311;28;20001;-79
2022/09/11 08:58:16;;;;;;;;;;;;;;;32.06;39.13;100032.75;4956323;28;19918;-80
2022/09/11 09:00:45;;;;;;;;;;;;;;;32.73;37.68;100030.13;4954840;29;19989;-79
2022/09/11 09:03:11;;;;;;;;;;;;;;;32.89;36.69;100039.34;4954966;29;19929;-79
2022/09/11 09:05:46;;;;;;;;;;;;;;;32.30;37.62;100041.75;4955973;28;19918;-80
2022/09/11 09:08:20;;;;;;;;;;;;;;;32.23;37.90;100042.25;4954798;29;20364;-80
2022/09/11 09:10:51;;;;;;;;;;;;;;;32.56;37.16;100040.84;4954855;29;20388;-80
2022/09/11 09:13:25;;;;;;;;;;;;;;;32.13;37.97;100031.50;4956424;28;20337;-79
2022/09/11 09:15:50;;;;;;;;;;;;;;;32.94;36.74;100027.06;4955957;28;20047;-79
2022/09/11 09:18:24;;;;;;;;;;;;;;;33.31;36.11;100033.34;4954451;29;19932;-78
2022/09/11 09:20:59;;;;;;;;;;;;;;;32.33;37.70;100025.53;4939208;29;19923;-80
2022/09/11 09:23:27;;;;;;;;;;;;;;;33.12;36.10;100032.28;4955942;28;20407;-80
2022/09/11 09:25:53;;;;;;;;;;;;;;;32.91;37.26;100030.97;4954100;29;19925;-78
2022/09/11 09:28:42;;;;;;;;;;;;;;;31.43;40.12;100027.91;4956050;28;20390;-79
2022/09/11 09:31:09;;;;;;;;;;;;;;;31.87;39.27;100025.88;4955308;29;20320;-80
2022/09/11 09:33:40;;;;;;;;;;;;;;;32.26;38.64;100006.66;4956513;28;20354;-79
2022/09/11 09:36:17;;;;;;;;;;;;;;;32.77;37.49;100015.47;4954760;29;20385;-79
2022/09/11 09:38:43;;;;;;;;;;;;;;;33.27;36.30;100017.63;4955703;28;20305;-82
2022/09/11 09:41:23;;;;;;;;;;;;;;;33.05;38.20;100029.94;4975307;28;19918;-82
2022/09/11 09:44:16;;;;;;;;;;;;;;;33.49;37.78;100034.91;4957754;28;19918;-82
2022/09/11 09:46:44;;;;;;;;;;;;;;;34.49;35.68;100026.53;4974561;28;19922;-81
2022/09/11 09:49:10;;;;;;;;;;;;;;;34.09;36.33;100026.69;4974822;28;20365;-81
2022/09/11 09:51:36;;;;;;;;;;;;;;;33.57;37.46;100030.19;4974951;28;19919;-79
2022/09/11 09:54:02;;;;;;;;;;;;;;;33.31;37.40;100030.47;4974686;28;19924;-82
2022/09/11 09:56:29;;;;;;;;;;;;;;;32.20;38.79;100020.25;4957509;28;19973;-79
2022/09/11 09:59:12;;;;;;;;;;;;;;;31.26;41.52;100012.63;4957364;28;19918;-80
2022/09/11 10:01:49;;;;;;;;;;;;;;;31.11;42.34;100011.94;4957781;28;20265;-81
2022/09/11 10:04:25;;;;;;;;;;;;;;;30.95;40.96;100011.31;4957614;28;20013;-79
2022/09/11 10:06:52;;;;;;;;;;;;;;;30.09;42.20;100006.38;4957236;28;19926;-77
2022/09/11 10:09:20;;;;;;;;;;;;;;;31.14;40.95;100000.22;4958208;28;19989;-78
2022/09/11 10:11:50;;;;;;;;;;;;;;;31.66;39.47;100008.72;4974614;28;20312;-80
2022/09/11 10:14:20;;;;;;;;;;;;;;;32.12;38.64;99996.19;4957504;28;20026;-80
2022/09/11 10:17:01;;;;;;;;;;;;;;;33.06;36.88;99999.81;4974621;28;19918;-80
2022/09/11 10:19:37;;;;;;;;;;;;;;;33.94;35.76;99999.47;4975021;28;20353;-80
2022/09/11 10:22:32;;;;;;;;;;;;;;;33.93;34.89;99992.06;4974512;28;20394;-80
2022/09/11 10:25:00;;;;;;;;;;;;;;;34.23;34.87;99987.25;4944727;28;20325;-80
2022/09/11 10:27:27;;;;;;;;;;;;;;;34.85;34.17;99990.56;4975182;28;19969;-77
2022/09/11 10:29:53;;;;;;;;;;;;;;;33.99;35.12;99995.75;4957506;28;19926;-79
2022/09/11 10:32:20;;;;;;;;;;;;;;;33.48;36.58;99995.09;4957074;28;19969;-78
2022/09/11 10:34:46;;;;;;;;;;;;;;;34.27;35.30;99993.53;4974482;28;20384;-79
2022/09/11 10:37:15;;;;;;;;;;;;;;;33.99;35.31;99990.78;4957049;28;20262;-79
2022/09/11 10:39:45;;;;;;;;;;;;;;;32.76;37.77;99990.84;4953315;29;19922;-79
2022/09/11 10:42:21;;;;;;;;;;;;;;;32.49;38.46;99989.47;4955379;28;19926;-77
2022/09/11 10:44:48;;;;;;;;;;;;;;;32.44;38.40;99987.38;4954005;29;19918;-78
2022/09/11 10:47:16;;;;;;;;;;;;;;;32.62;38.66;99972.50;4953551;29;19919;-78
2022/09/11 10:49:42;;;;;;;;;;;;;;;32.52;39.82;99982.69;4955155;28;19922;-78
2022/09/11 10:52:07;;;;;;;;;;;;;;;31.70;41.26;99973.97;4957407;29;19922;-80
2022/09/11 10:54:40;;;;;;;;;;;;;;;31.08;43.56;99967.00;4957832;29;19926;-78
2022/09/11 10:57:15;;;;;;;;;;;;;;;31.17;42.77;99964.72;4957090;29;19966;-80
2022/09/11 10:59:45;;;;;;;;;;;;;;;30.30;44.57;99964.16;4958558;28;20350;-78
2022/09/11 11:02:18;;;;;;;;;;;;;;;31.01;43.59;99959.66;4958802;28;19925;-81
2022/09/11 11:04:44;;;;;;;;;;;;;;;30.40;44.70;99966.34;4973364;28;19970;-80
2022/09/11 11:07:36;;;;;;;;;;;;;;;30.80;43.12;99958.16;4957280;29;19918;-79
2022/09/11 11:10:01;;;;;;;;;;;;;;;30.80;42.56;99955.28;4956153;29;19919;-79
2022/09/11 11:12:31;;;;;;;;;;;;;;;31.84;40.60;99957.84;4958422;29;19926;-80
2022/09/11 11:14:56;;;;;;;;;;;;;;;32.13;40.47;99962.44;4958434;28;19919;-78
2022/09/11 11:17:30;;;;;;;;;;;;;;;31.41;41.83;99966.47;4958611;29;20255;-77
2022/09/11 11:20:10;;;;;;;;;;;;;;;31.14;41.93;99959.22;4957742;29;20303;-80
2022/09/11 11:22:44;;;;;;;;;;;;;;;31.83;40.72;99962.03;4957954;28;19918;-80
2022/09/11 11:25:09;;;;;;;;;;;;;;;31.90;40.61;99970.16;4956958;29;19919;-78
2022/09/11 11:27:48;;;;;;;;;;;;;;;32.08;40.23;99963.97;4957492;29;19925;-79
2022/09/11 11:30:21;;;;;;;;;;;;;;;31.97;40.52;99970.47;4958085;28;19925;-80
2022/09/11 11:33:03;;;;;;;;;;;;;;;31.69;40.80;99970.28;4956849;29;20381;-79
2022/09/11 11:35:28;;;;;;;;;;;;;;;32.12;40.23;99960.81;4956888;29;19918;-79
2022/09/11 11:38:12;;;;;;;;;;;;;;;32.30;39.92;99961.16;4957852;29;19919;-78
2022/09/11 11:40:45;;;;;;;;;;;;;;;31.90;40.61;99959.44;4975166;28;19922;-78
2022/09/11 11:43:11;;;;;;;;;;;;;;;31.52;41.53;99967.31;4959864;28;20013;-79
2022/09/11 11:45:57;;;;;;;;;;;;;;;31.41;41.86;99966.47;4977595;28;20361;-80
2022/09/11 11:48:33;;;;;;;;;;;;;;;31.81;41.80;99971.97;4959058;28;20008;-77
2022/09/11 11:51:01;;;;;;;;;;;;;;;31.12;42.78;99967.56;4960207;28;20061;-76
2022/09/11 11:53:39;;;;;;;;;;;;;;;30.87;43.72;99963.44;4959528;28;19919;-80
2022/09/11 11:56:13;;;;;;;;;;;;;;;29.97;45.40;99953.81;4959633;28;19918;-78
2022/09/11 11:58:38;;;;;;;;;;;;;;;29.72;46.06;99953.28;4977002;28;19918;-78
2022/09/11 12:01:08;;;;;;;;;;;;;;;30.77;43.65;99969.34;4975868;28;19918;-79
2022/09/11 12:03:52;;;;;;;;;;;;;;;30.65;44.56;99959.03;4976261;28;19924;-78
2022/09/11 12:06:20;;;;;;;;;;;;;;;30.52;44.68;99967.25;4959113;28;19918;-78
2022/09/11 12:08:46;;;;;;;;;;;;;;;30.74;44.47;99956.03;4959288;28;20020;-80
2022/09/11 12:11:15;;;;;;;;;;;;;;;31.04;43.81;99959.38;4959131;28;19961;-79
2022/09/11 12:14:00;;;;;;;;;;;;;;;30.59;44.37;99955.31;4959147;28;19944;-79
2022/09/11 12:16:35;;;;;;;;;;;;;;;31.05;43.80;99940.06;4959129;28;19973;-78
2022/09/11 12:19:06;;;;;;;;;;;;;;;30.81;43.92;99948.25;4958994;28;20029;-77
2022/09/11 12:21:34;;;;;;;;;;;;;;;29.88;45.56;99942.50;4976085;28;20262;-80
2022/09/11 12:24:02;;;;;;;;;;;;;;;30.52;43.81;99944.28;4976355;28;19918;-81
2022/09/11 12:26:34;;;;;;;;;;;;;;;31.25;42.39;99948.59;4958687;28;19918;-78
2022/09/11 12:29:19;;;;;;;;;;;;;;;31.28;42.87;99946.81;4959354;28;19950;-78
2022/09/11 12:31:48;;;;;;;;;;;;;;;30.74;44.06;99953.16;4926308;28;19918;-81
2022/09/11 12:34:25;;;;;;;;;;;;;;;31.19;43.62;99947.75;4975842;28;19925;-79
2022/09/11 12:36:59;;;;;;;;;;;;;;;31.43;42.47;99955.28;4958689;28;20018;-80
2022/09/11 12:39:25;;;;;;;;;;;;;;;31.41;42.67;99950.00;4955306;29;19922;-78
2022/09/11 12:41:50;;;;;;;;;;;;;;;30.33;44.51;99948.78;4955077;29;19970;-80
2022/09/11 12:44:29;;;;;;;;;;;;;;;30.51;44.64;99948.44;4955199;29;19919;-78
2022/09/11 12:46:58;;;;;;;;;;;;;;;30.60;45.21;99951.16;4955249;29;19926;-79
2022/09/11 12:49:24;;;;;;;;;;;;;;;30.66;44.54;99945.47;4957032;29;19925;-80